createdAt,value
2023-01-22T00:01:32.483Z,64.9
2023-01-22T00:02:42.918Z,64.9
2023-01-22T00:03:53.338Z,64.9
2023-01-22T00:04:45.770Z,64.9
2023-01-22T00:10:55.941Z,64.8
2023-01-22T00:11:48.356Z,64.8
2023-01-22T00:13:16.000Z,64.7
2023-01-22T00:16:48.081Z,64.8
2023-01-22T00:19:08.000Z,64.8
2023-01-22T00:20:19.372Z,64.8
2023-01-22T00:26:11.000Z,64.7
2023-01-22T00:27:21.959Z,64.8
2023-01-22T00:32:55.382Z,64.8
2023-01-22T00:35:34.251Z,64.8
2023-01-22T00:36:44.679Z,64.7
2023-01-22T00:37:55.108Z,64.7
2023-01-22T00:39:05.539Z,64.7
2023-01-22T00:39:57.967Z,64.7
2023-01-22T00:46:08.122Z,64.6
2023-01-22T00:47:00.551Z,64.7
2023-01-22T00:49:39.424Z,64.7
2023-01-22T00:50:49.845Z,64.7
2023-01-22T00:54:03.137Z,64.7
2023-01-22T00:55:30.000Z,64.7
2023-01-22T00:56:41.273Z,64.7
2023-01-22T00:59:02.129Z,64.7
2023-01-22T01:01:22.000Z,64.6
2023-01-22T01:06:04.718Z,64.6
2023-01-22T01:07:15.148Z,64.6
2023-01-22T01:08:07.577Z,64.6
2023-01-22T01:10:46.441Z,64.6
2023-01-22T01:11:56.000Z,64.6
2023-01-22T01:13:07.307Z,64.6
2023-01-22T01:14:17.732Z,64.6
2023-01-22T01:15:10.161Z,64.6
2023-01-22T01:16:37.854Z,64.6
2023-01-22T01:20:09.000Z,64.6
2023-01-22T01:22:12.015Z,64.6
2023-01-22T01:23:40.446Z,64.6
2023-01-22T01:27:11.730Z,64.5
2023-01-22T01:28:22.167Z,64.5
2023-01-22T01:29:14.600Z,64.5
2023-01-22T01:30:43.000Z,64.5
2023-01-22T01:33:03.000Z,64.5
2023-01-22T01:35:24.807Z,64.5
2023-01-22T01:36:35.000Z,64.5
2023-01-22T01:37:45.000Z,64.5
2023-01-22T01:43:19.771Z,64.4
2023-01-22T01:44:47.470Z,64.5
2023-01-22T01:48:18.774Z,64.5
2023-01-22T01:49:29.000Z,64.5
2023-01-22T01:50:21.626Z,64.5
2023-01-22T01:51:50.053Z,64.5
2023-01-22T01:53:00.498Z,64.5
2023-01-22T01:54:10.912Z,64.4
2023-01-22T01:56:31.783Z,64.5
2023-01-22T01:58:52.000Z,64.5
2023-01-22T02:00:03.000Z,64.5
2023-01-22T02:01:13.512Z,64.5
2023-01-22T02:02:23.000Z,64.4
2023-01-22T02:04:26.799Z,64.5
2023-01-22T02:05:54.500Z,64.4
2023-01-22T02:09:25.805Z,64.4
2023-01-22T02:10:36.000Z,64.4
2023-01-22T02:11:46.000Z,64.4
2023-01-22T02:12:57.096Z,64.5
2023-01-22T02:14:07.521Z,64.4
2023-01-22T02:16:28.000Z,64.4
2023-01-22T02:17:38.809Z,64.4
2023-01-22T02:18:49.246Z,64.4
2023-01-22T02:19:59.669Z,64.4
2023-01-22T02:23:30.971Z,64.4
2023-01-22T02:24:41.407Z,64.4
2023-01-22T02:25:33.831Z,64.4
2023-01-22T02:27:01.530Z,64.4
2023-01-22T02:28:11.000Z,64.4
2023-01-22T02:29:22.385Z,64.3
2023-01-22T02:31:43.247Z,64.3
2023-01-22T02:32:35.686Z,64.3
2023-01-22T02:34:04.000Z,64.3
2023-01-22T02:35:14.546Z,64.3
2023-01-22T02:36:24.979Z,64.3
2023-01-22T02:38:45.840Z,64.3
2023-01-22T02:39:38.273Z,64.3
2023-01-22T02:44:37.995Z,64.3
2023-01-22T02:45:47.000Z,64.3
2023-01-22T02:46:58.000Z,64.2
2023-01-22T02:49:19.001Z,64.3
2023-01-22T02:51:39.844Z,64.3
2023-01-22T02:52:50.000Z,64.2
2023-01-22T02:54:00.000Z,64.2
2023-01-22T02:56:21.569Z,64.2
2023-01-22T02:57:32.004Z,64.2
2023-01-22T02:58:42.000Z,64.2
2023-01-22T02:59:52.864Z,64.2
2023-01-22T03:00:45.297Z,64.2
2023-01-22T03:02:12.000Z,64.2
2023-01-22T03:05:44.000Z,64.2
2023-01-22T03:06:54.000Z,64.2
2023-01-22T03:07:47.150Z,64.2
2023-01-22T03:09:15.575Z,64.2
2023-01-22T03:10:26.000Z,64.2
2023-01-22T03:12:46.880Z,64.2
2023-01-22T03:13:57.000Z,64.2
2023-01-22T03:14:49.735Z,64.2
2023-01-22T03:16:18.161Z,64.2
2023-01-22T03:17:27.865Z,64.2
2023-01-22T03:18:38.000Z,64.2
2023-01-22T03:19:48.734Z,64.2
2023-01-22T03:20:59.168Z,64.2
2023-01-22T03:23:20.000Z,64.1
2023-01-22T03:24:30.000Z,64.1
2023-01-22T03:25:40.893Z,64.1
2023-01-22T03:26:51.319Z,64.1
2023-01-22T03:28:01.011Z,64.1
2023-01-22T03:29:11.000Z,64.1
2023-01-22T03:30:21.879Z,64.1
2023-01-22T03:31:32.298Z,64.1
2023-01-22T03:32:42.736Z,64.1
2023-01-22T03:33:53.175Z,64.1
2023-01-22T03:35:03.000Z,64.1
2023-01-22T03:35:56.029Z,64.1
2023-01-22T03:37:23.770Z,64.1
2023-01-22T03:39:44.000Z,64.1
2023-01-22T03:40:55.074Z,64.1
2023-01-22T03:42:57.924Z,64
2023-01-22T03:44:25.000Z,64.1
2023-01-22T03:45:36.061Z,64
2023-01-22T03:46:46.479Z,64
2023-01-22T03:49:59.778Z,64
2023-01-22T03:51:28.201Z,64
2023-01-22T03:53:49.000Z,63.9
2023-01-22T03:54:59.520Z,63.9
2023-01-22T03:56:09.000Z,63.9
2023-01-22T03:57:20.000Z,63.9
2023-01-22T03:59:41.235Z,63.9
2023-01-22T04:00:50.961Z,63.9
2023-01-22T04:02:00.662Z,63.9
2023-01-22T04:03:11.106Z,63.9
2023-01-22T04:04:03.528Z,63.9
2023-01-22T04:05:31.000Z,63.9
2023-01-22T04:07:52.830Z,63.9
2023-01-22T04:09:03.246Z,63.9
2023-01-22T04:10:13.685Z,63.9
2023-01-22T04:11:06.112Z,63.9
2023-01-22T04:12:34.552Z,63.9
2023-01-22T04:13:44.000Z,63.9
2023-01-22T04:16:05.837Z,63.9
2023-01-22T04:17:15.547Z,63.8
2023-01-22T04:18:07.970Z,63.8
2023-01-22T04:19:36.411Z,63.8
2023-01-22T04:20:46.828Z,63.9
2023-01-22T04:21:57.261Z,63.9
2023-01-22T04:24:18.140Z,63.9
2023-01-22T04:25:10.558Z,63.8
2023-01-22T04:26:38.987Z,63.8
2023-01-22T04:27:49.428Z,63.8
2023-01-22T04:28:59.848Z,63.8
2023-01-22T04:29:52.284Z,63.8
2023-01-22T04:32:31.000Z,63.8
2023-01-22T04:33:41.576Z,63.9
2023-01-22T04:34:52.000Z,63.9
2023-01-22T04:36:02.436Z,63.8
2023-01-22T04:37:12.875Z,63.8
2023-01-22T04:38:22.000Z,63.8
2023-01-22T04:39:33.000Z,63.8
2023-01-22T04:41:53.867Z,63.8
2023-01-22T04:43:04.301Z,63.8
2023-01-22T04:45:25.164Z,63.8
2023-01-22T04:46:17.593Z,63.8
2023-01-22T04:47:46.019Z,63.8
2023-01-22T04:48:56.460Z,63.8
2023-01-22T04:50:06.899Z,63.8
2023-01-22T04:51:17.000Z,63.8
2023-01-22T04:52:27.000Z,63.8
2023-01-22T04:54:48.613Z,63.8
2023-01-22T04:55:58.000Z,63.9
2023-01-22T04:57:08.745Z,63.8
2023-01-22T04:58:19.170Z,63.8
2023-01-22T05:00:40.000Z,63.8
2023-01-22T05:03:00.903Z,63.8
2023-01-22T05:04:11.000Z,63.8
2023-01-22T05:06:32.210Z,63.8
2023-01-22T05:07:42.622Z,63.8
2023-01-22T05:08:53.000Z,63.8
2023-01-22T05:11:13.924Z,63.8
2023-01-22T05:12:24.000Z,63.8
2023-01-22T05:14:45.206Z,63.8
2023-01-22T05:15:54.914Z,63.8
2023-01-22T05:17:05.000Z,63.8
2023-01-22T05:20:36.000Z,63.8
2023-01-22T05:21:29.063Z,63.8
2023-01-22T05:22:57.495Z,63.8
2023-01-22T05:24:07.932Z,63.8
2023-01-22T05:25:18.000Z,63.8
2023-01-22T05:26:28.000Z,63.7
2023-01-22T05:28:31.647Z,63.7
2023-01-22T05:31:10.501Z,63.7
2023-01-22T05:33:30.000Z,63.8
2023-01-22T05:34:41.079Z,63.7
2023-01-22T05:35:33.501Z,63.8
2023-01-22T05:37:01.940Z,63.7
2023-01-22T05:38:12.000Z,63.7
2023-01-22T05:39:22.787Z,63.7
2023-01-22T05:40:33.220Z,63.7
2023-01-22T05:41:43.652Z,63.7
2023-01-22T05:42:54.082Z,63.7
2023-01-22T05:44:04.000Z,63.8
2023-01-22T05:45:14.961Z,63.8
2023-01-22T05:46:25.000Z,63.7
2023-01-22T05:47:35.814Z,63.8
2023-01-22T05:48:45.511Z,63.7
2023-01-22T05:49:37.944Z,63.7
2023-01-22T05:51:06.369Z,63.8
2023-01-22T05:52:16.816Z,63.8
2023-01-22T05:53:27.241Z,63.8
2023-01-22T05:54:37.660Z,63.7
2023-01-22T05:55:48.091Z,63.7
2023-01-22T05:56:39.839Z,63.7
2023-01-22T05:58:07.546Z,63.7
2023-01-22T05:59:17.000Z,63.7
2023-01-22T06:01:38.836Z,63.8
2023-01-22T06:02:31.262Z,63.8
2023-01-22T06:03:41.693Z,63.8
2023-01-22T06:06:20.566Z,63.7
2023-01-22T06:07:30.984Z,63.8
2023-01-22T06:08:41.415Z,63.8
2023-01-22T06:09:51.843Z,63.8
2023-01-22T06:10:44.281Z,63.8
2023-01-22T06:12:12.000Z,63.8
2023-01-22T06:13:22.000Z,63.8
2023-01-22T06:14:32.883Z,63.8
2023-01-22T06:15:42.587Z,63.8
2023-01-22T06:16:53.016Z,63.8
2023-01-22T06:18:03.000Z,63.8
2023-01-22T06:19:13.889Z,63.8
2023-01-22T06:20:24.000Z,63.7
2023-01-22T06:22:45.181Z,63.7
2023-01-22T06:23:55.000Z,63.7
2023-01-22T06:24:48.035Z,63.7
2023-01-22T06:26:16.000Z,63.7
2023-01-22T06:27:26.896Z,63.7
2023-01-22T06:28:37.000Z,63.7
2023-01-22T06:29:47.757Z,63.7
2023-01-22T06:30:58.200Z,63.7
2023-01-22T06:31:50.621Z,63.8
2023-01-22T06:33:18.000Z,63.8
2023-01-22T06:35:39.186Z,63.8
2023-01-22T06:36:49.612Z,63.8
2023-01-22T06:38:00.000Z,63.8
2023-01-22T06:38:52.477Z,63.8
2023-01-22T06:40:20.914Z,63.8
2023-01-22T06:41:31.000Z,63.8
2023-01-22T06:42:41.000Z,63.8
2023-01-22T06:45:02.631Z,63.8
2023-01-22T06:45:55.064Z,63.8
2023-01-22T06:48:33.921Z,63.8
2023-01-22T06:49:43.000Z,63.8
2023-01-22T06:50:54.049Z,63.8
2023-01-22T06:52:04.491Z,63.8
2023-01-22T06:53:14.000Z,63.8
2023-01-22T06:54:25.349Z,63.8
2023-01-22T06:55:35.782Z,63.8
2023-01-22T06:56:46.219Z,63.8
2023-01-22T06:59:07.078Z,63.8
2023-01-22T07:00:17.000Z,63.6
2023-01-22T07:01:27.932Z,63.8
2023-01-22T07:02:38.362Z,63.6
2023-01-22T07:04:59.231Z,63.8
2023-01-22T07:06:09.655Z,63.6
2023-01-22T07:07:02.094Z,63.6
2023-01-22T07:08:29.793Z,63.6
2023-01-22T07:09:40.233Z,63.8
2023-01-22T07:10:50.000Z,63.8
2023-01-22T07:12:01.000Z,63.6
2023-01-22T07:13:11.517Z,63.6
2023-01-22T07:14:03.950Z,63.6
2023-01-22T07:15:32.000Z,63.6
2023-01-22T07:16:42.000Z,63.6
2023-01-22T07:17:53.250Z,63.6
2023-01-22T07:19:03.684Z,63.6
2023-01-22T07:20:14.116Z,63.6
2023-01-22T07:21:06.538Z,63.6
2023-01-22T07:22:34.974Z,63.6
2023-01-22T07:24:55.182Z,63.6
2023-01-22T07:26:04.877Z,63.6
2023-01-22T07:27:15.000Z,63.6
2023-01-22T07:28:25.738Z,63.6
2023-01-22T07:29:36.175Z,63.6
2023-01-22T07:30:46.603Z,63.6
2023-01-22T07:31:56.349Z,63.6
2023-01-22T07:33:06.000Z,63.6
2023-01-22T07:35:09.644Z,63.6
2023-01-22T07:36:37.000Z,63.6
2023-01-22T07:38:58.226Z,63.6
2023-01-22T07:40:08.632Z,63.6
2023-01-22T07:41:19.063Z,63.6
2023-01-22T07:42:11.499Z,63.6
2023-01-22T07:43:39.937Z,63.6
2023-01-22T07:44:50.000Z,63.6
2023-01-22T07:46:00.796Z,63.6
2023-01-22T07:47:11.222Z,63.6
2023-01-22T07:48:20.000Z,63.6
2023-01-22T07:49:13.394Z,63.6
2023-01-22T07:50:41.827Z,63.6
2023-01-22T07:51:51.528Z,63.6
2023-01-22T07:54:12.380Z,63.6
2023-01-22T07:55:22.831Z,63.6
2023-01-22T07:56:33.249Z,63.6
2023-01-22T07:57:25.682Z,63.6
2023-01-22T08:01:14.000Z,63.6
2023-01-22T08:02:25.402Z,63.6
2023-01-22T08:03:35.831Z,63.6
2023-01-22T08:04:46.267Z,63.6
2023-01-22T08:05:56.697Z,63.6
2023-01-22T08:07:06.401Z,63.6
2023-01-22T08:08:16.825Z,63.8
2023-01-22T08:09:27.273Z,63.8
2023-01-22T08:10:19.692Z,63.8
2023-01-22T08:12:58.554Z,63.8
2023-01-22T08:14:08.000Z,63.8
2023-01-22T08:15:19.000Z,63.8
2023-01-22T08:16:29.843Z,63.6
2023-01-22T08:17:22.276Z,63.6
2023-01-22T08:18:50.000Z,63.6
2023-01-22T08:21:11.573Z,63.8
2023-01-22T08:22:21.000Z,63.8
2023-01-22T08:23:31.712Z,63.6
2023-01-22T08:25:52.573Z,63.8
2023-01-22T08:27:03.002Z,63.6
2023-01-22T08:28:13.433Z,63.8
2023-01-22T08:29:23.851Z,63.6
2023-01-22T08:30:34.289Z,63.6
2023-01-22T08:31:44.715Z,63.6
2023-01-22T08:32:55.000Z,63.8
2023-01-22T08:34:05.584Z,63.8
2023-01-22T08:35:16.009Z,63.8
2023-01-22T08:36:26.453Z,63.8
2023-01-22T08:37:36.881Z,63.8
2023-01-22T08:38:47.302Z,63.8
2023-01-22T08:39:57.740Z,63.8
2023-01-22T08:41:07.000Z,63.8
2023-01-22T08:43:28.293Z,63.8
2023-01-22T08:45:31.162Z,63.8
2023-01-22T08:46:59.604Z,63.8
2023-01-22T08:48:10.000Z,63.8
2023-01-22T08:50:30.901Z,63.8
2023-01-22T08:51:41.000Z,63.8
2023-01-22T08:52:33.750Z,63.8
2023-01-22T08:54:02.000Z,63.8
2023-01-22T08:56:23.047Z,63.8
2023-01-22T08:57:32.753Z,63.8
2023-01-22T09:01:04.029Z,63.9
2023-01-22T09:02:14.491Z,63.9
2023-01-22T09:03:24.909Z,63.9
2023-01-22T09:04:35.336Z,63.9
2023-01-22T09:06:56.000Z,63.9
2023-01-22T09:08:06.628Z,63.8
2023-01-22T09:09:17.049Z,63.8
2023-01-22T09:11:37.914Z,63.8
2023-01-22T09:12:48.357Z,63.8
2023-01-22T09:16:18.910Z,63.8
2023-01-22T09:17:29.335Z,63.9
2023-01-22T09:18:39.772Z,63.9
2023-01-22T09:19:50.213Z,63.9
2023-01-22T09:20:42.632Z,63.9
2023-01-22T09:22:11.067Z,63.9
2023-01-22T09:24:31.929Z,63.9
2023-01-22T09:25:42.357Z,63.9
2023-01-22T09:26:52.800Z,63.9
2023-01-22T09:27:45.220Z,63.9
2023-01-22T09:29:12.919Z,63.9
2023-01-22T09:30:23.354Z,63.9
2023-01-22T09:31:33.782Z,63.9
2023-01-22T09:32:44.209Z,63.9
2023-01-22T09:33:54.644Z,63.9
2023-01-22T09:34:47.078Z,63.9
2023-01-22T09:36:15.510Z,63.9
2023-01-22T09:37:25.940Z,63.9
2023-01-22T09:38:36.375Z,63.9
2023-01-22T09:39:46.799Z,64
2023-01-22T09:40:56.537Z,64
2023-01-22T09:42:06.973Z,64
2023-01-22T09:43:17.408Z,64
2023-01-22T09:45:37.558Z,64
2023-01-22T09:46:47.974Z,64
2023-01-22T09:49:08.000Z,64
2023-01-22T09:50:19.268Z,64
2023-01-22T09:51:29.000Z,64
2023-01-22T09:52:40.127Z,64
2023-01-22T09:55:00.984Z,64
2023-01-22T09:55:53.415Z,64
2023-01-22T09:57:21.164Z,64
2023-01-22T09:58:30.860Z,64
2023-01-22T09:59:41.000Z,64.1
2023-01-22T10:00:51.727Z,64.1
2023-01-22T10:02:02.147Z,64.1
2023-01-22T10:02:54.582Z,64.1
2023-01-22T10:04:23.010Z,64.1
2023-01-22T10:05:33.449Z,64.1
2023-01-22T10:06:43.876Z,64.1
2023-01-22T10:07:54.311Z,64.1
2023-01-22T10:09:04.748Z,64.1
2023-01-22T10:09:57.169Z,64.1
2023-01-22T10:11:24.913Z,64.1
2023-01-22T10:12:34.624Z,64.1
2023-01-22T10:13:45.000Z,64.2
2023-01-22T10:14:55.475Z,64.2
2023-01-22T10:16:05.907Z,64.2
2023-01-22T10:16:58.334Z,64.2
2023-01-22T10:18:26.762Z,64.2
2023-01-22T10:19:37.200Z,64.2
2023-01-22T10:20:47.000Z,64.2
2023-01-22T10:21:58.069Z,64.2
2023-01-22T10:23:08.497Z,64.2
2023-01-22T10:24:18.000Z,64.2
2023-01-22T10:25:27.000Z,64.2
2023-01-22T10:26:38.357Z,64.2
2023-01-22T10:27:48.794Z,64.2
2023-01-22T10:28:59.000Z,64.2
2023-01-22T10:31:02.087Z,64.3
2023-01-22T10:32:30.530Z,64.3
2023-01-22T10:33:40.000Z,64.3
2023-01-22T10:34:51.383Z,64.3
2023-01-22T10:36:01.814Z,64.3
2023-01-22T10:37:12.238Z,64.3
2023-01-22T10:38:04.674Z,64.3
2023-01-22T10:40:43.536Z,64.3
2023-01-22T10:41:53.275Z,64.3
2023-01-22T10:43:02.000Z,64.3
2023-01-22T10:44:13.407Z,64.3
2023-01-22T10:45:05.838Z,64.3
2023-01-22T10:46:34.265Z,64.3
2023-01-22T10:47:44.699Z,64.3
2023-01-22T10:48:55.127Z,64.4
2023-01-22T10:50:05.569Z,64.4
2023-01-22T10:51:15.991Z,64.4
2023-01-22T10:52:26.000Z,64.4
2023-01-22T10:53:36.867Z,64.4
2023-01-22T10:54:46.000Z,64.4
2023-01-22T10:58:17.000Z,64.4
2023-01-22T10:59:28.000Z,64.4
2023-01-22T11:00:38.036Z,64.4
2023-01-22T11:01:48.461Z,64.4
2023-01-22T11:02:58.000Z,64.4
2023-01-22T11:05:19.744Z,64.4
2023-01-22T11:06:30.000Z,64.4
2023-01-22T11:10:01.468Z,64.5
2023-01-22T11:11:11.897Z,64.4
2023-01-22T11:12:22.000Z,64.5
2023-01-22T11:13:14.759Z,64.4
2023-01-22T11:14:42.497Z,64.5
2023-01-22T11:15:52.941Z,64.5
2023-01-22T11:18:13.067Z,64.5
2023-01-22T11:19:23.499Z,64.5
2023-01-22T11:20:15.924Z,64.5
2023-01-22T11:21:43.632Z,64.5
2023-01-22T11:22:54.065Z,64.5
2023-01-22T11:25:14.916Z,64.5
2023-01-22T11:27:35.785Z,64.4
2023-01-22T11:29:56.641Z,64.4
2023-01-22T11:31:07.076Z,64.6
2023-01-22T11:32:16.829Z,64.5
2023-01-22T11:33:26.526Z,64.5
2023-01-22T11:34:36.000Z,64.5
2023-01-22T11:36:57.813Z,64.5
2023-01-22T11:38:08.237Z,64.5
2023-01-22T11:39:18.676Z,64.5
2023-01-22T11:40:29.110Z,64.5
2023-01-22T11:41:21.531Z,64.5
2023-01-22T11:42:49.964Z,64.5
2023-01-22T11:44:00.406Z,64.5
2023-01-22T11:45:10.824Z,64.5
2023-01-22T11:46:21.281Z,64.5
2023-01-22T11:47:31.698Z,64.5
2023-01-22T11:48:42.120Z,64.5
2023-01-22T11:49:51.831Z,64.6
2023-01-22T11:51:02.256Z,64.5
2023-01-22T11:56:54.406Z,64.6
2023-01-22T11:58:04.000Z,64.6
2023-01-22T12:00:25.704Z,64.6
2023-01-22T12:01:36.140Z,64.6
2023-01-22T12:02:46.000Z,64.6
2023-01-22T12:03:56.994Z,64.6
2023-01-22T12:05:06.694Z,64.6
2023-01-22T12:06:17.000Z,64.6
2023-01-22T12:07:27.561Z,64.6
2023-01-22T12:08:37.994Z,64.6
2023-01-22T12:09:48.411Z,64.6
2023-01-22T12:10:58.844Z,64.8
2023-01-22T12:13:19.709Z,64.8
2023-01-22T12:14:30.000Z,64.8
2023-01-22T12:16:32.993Z,64.8
2023-01-22T12:18:01.421Z,64.8
2023-01-22T12:19:11.867Z,64.8
2023-01-22T12:20:21.567Z,64.8
2023-01-22T12:22:42.420Z,64.8
2023-01-22T12:23:34.848Z,64.8
2023-01-22T12:25:03.303Z,64.8
2023-01-22T12:26:13.718Z,64.8
2023-01-22T12:28:34.574Z,64.8
2023-01-22T12:29:45.013Z,64.8
2023-01-22T12:30:37.433Z,64.8
2023-01-22T12:32:05.877Z,64.8
2023-01-22T12:33:16.293Z,64.8
2023-01-22T12:34:26.740Z,64.8
2023-01-22T12:35:37.163Z,64.8
2023-01-22T12:37:57.000Z,64.8
2023-01-22T12:39:07.736Z,64.8
2023-01-22T12:40:18.151Z,64.8
2023-01-22T12:41:28.591Z,64.8
2023-01-22T12:42:39.013Z,64.8
2023-01-22T12:43:49.441Z,64.8
2023-01-22T12:44:59.000Z,64.8
2023-01-22T12:47:20.740Z,64.8
2023-01-22T12:48:31.166Z,64.8
2023-01-22T12:49:41.606Z,64.8
2023-01-22T12:50:52.042Z,64.8
2023-01-22T12:51:44.456Z,64.8
2023-01-22T12:53:12.000Z,64.8
2023-01-22T12:54:22.588Z,64.8
2023-01-22T12:55:33.033Z,64.8
2023-01-22T12:56:43.000Z,64.8
2023-01-22T12:57:53.889Z,64.8
2023-01-22T12:58:46.310Z,64.8
2023-01-22T13:00:14.754Z,64.8
2023-01-22T13:01:25.179Z,64.8
2023-01-22T13:02:34.917Z,64.8
2023-01-22T13:03:44.610Z,64.8
2023-01-22T13:04:55.054Z,64.8
2023-01-22T13:09:36.768Z,64.8
2023-01-22T13:11:57.640Z,64.8
2023-01-22T13:13:08.073Z,64.8
2023-01-22T13:14:18.495Z,64.8
2023-01-22T13:16:39.351Z,64.8
2023-01-22T13:17:49.793Z,64.8
2023-01-22T13:20:09.911Z,65
2023-01-22T13:21:20.356Z,65
2023-01-22T13:22:30.781Z,64.8
2023-01-22T13:23:40.534Z,64.8
2023-01-22T13:24:50.955Z,64.8
2023-01-22T13:26:01.377Z,64.8
2023-01-22T13:27:11.000Z,64.8
2023-01-22T13:30:42.376Z,64.8
2023-01-22T13:33:03.237Z,64.8
2023-01-22T13:33:55.663Z,64.8
2023-01-22T13:35:24.100Z,64.8
2023-01-22T13:38:55.391Z,64.8
2023-01-22T13:40:05.832Z,64.8
2023-01-22T13:42:26.689Z,64.8
2023-01-22T13:43:37.109Z,64.8
2023-01-22T13:44:46.817Z,64.8
2023-01-22T13:45:57.262Z,64.8
2023-01-22T13:47:07.678Z,64.8
2023-01-22T13:48:18.000Z,64.8
2023-01-22T13:50:38.970Z,64.8
2023-01-22T13:51:49.410Z,64.8
2023-01-22T13:54:10.272Z,64.8
2023-01-22T13:55:20.684Z,64.8
2023-01-22T13:56:31.121Z,64.8
2023-01-22T13:57:41.562Z,64.8
2023-01-22T13:58:51.976Z,64.8
2023-01-22T14:00:02.412Z,64.8
2023-01-22T14:02:05.272Z,64.9
2023-01-22T14:04:43.418Z,64.8
2023-01-22T14:07:04.278Z,64.9
2023-01-22T14:08:14.709Z,64.9
2023-01-22T14:09:07.127Z,64.9
2023-01-22T14:11:46.000Z,64.9
2023-01-22T14:12:56.442Z,64.9
2023-01-22T14:15:17.296Z,64.9
2023-01-22T14:16:09.713Z,64.9
2023-01-22T14:23:12.300Z,64.9
2023-01-22T14:24:39.997Z,64.9
2023-01-22T14:25:50.440Z,64.9
2023-01-22T14:27:00.873Z,64.9
2023-01-22T14:28:11.294Z,64.9
2023-01-22T14:29:21.738Z,64.9
2023-01-22T14:30:32.000Z,64.9
2023-01-22T14:32:53.022Z,64.9
2023-01-22T14:34:03.451Z,64.9
2023-01-22T14:35:13.889Z,64.9
2023-01-22T14:36:24.324Z,64.9
2023-01-22T14:37:16.741Z,64.9
2023-01-22T14:38:45.000Z,64.9
2023-01-22T14:44:18.595Z,64.9
2023-01-22T14:46:57.000Z,64.9
2023-01-22T14:48:07.891Z,64.9
2023-01-22T14:49:18.318Z,64.9
2023-01-22T14:50:28.764Z,64.9
2023-01-22T14:54:00.059Z,65
2023-01-22T14:55:10.477Z,64.9
2023-01-22T14:56:20.912Z,64.9
2023-01-22T14:57:31.340Z,65
2023-01-22T14:58:41.760Z,65
2023-01-22T14:59:51.474Z,65
2023-01-22T15:03:22.766Z,65
2023-01-22T15:04:33.200Z,65
2023-01-22T15:05:43.000Z,65
2023-01-22T15:06:54.057Z,65
2023-01-22T15:10:25.347Z,65
2023-01-22T15:11:35.788Z,65
2023-01-22T15:12:46.201Z,65
2023-01-22T15:13:56.646Z,65
2023-01-22T15:16:16.767Z,65
2023-01-22T15:18:36.895Z,65
2023-01-22T15:19:47.323Z,65
2023-01-22T15:20:57.041Z,65
2023-01-22T15:22:07.461Z,65
2023-01-22T15:23:17.902Z,65
2023-01-22T15:24:28.332Z,65
2023-01-22T15:27:59.618Z,65
2023-01-22T15:29:10.057Z,65
2023-01-22T15:30:20.476Z,65
2023-01-22T15:31:30.906Z,65
2023-01-22T15:33:51.761Z,65
2023-01-22T15:37:23.096Z,65
2023-01-22T15:39:43.185Z,65
2023-01-22T15:40:53.000Z,65
2023-01-22T15:42:04.066Z,65
2023-01-22T15:44:24.911Z,65
2023-01-22T15:45:35.355Z,65
2023-01-22T15:46:45.785Z,65
2023-01-22T15:47:38.205Z,65
2023-01-22T15:49:06.649Z,65
2023-01-22T15:50:17.070Z,65
2023-01-22T15:51:27.492Z,65
2023-01-22T15:53:48.369Z,65
2023-01-22T15:54:58.000Z,65
2023-01-22T15:57:18.942Z,65
2023-01-22T15:58:29.351Z,65
2023-01-22T15:59:39.000Z,65
2023-01-22T16:00:50.214Z,65
2023-01-22T16:01:42.642Z,65
2023-01-22T16:03:11.075Z,65
2023-01-22T16:06:42.370Z,65
2023-01-22T16:07:52.798Z,65
2023-01-22T16:09:03.000Z,65.1
2023-01-22T16:10:13.669Z,65.1
2023-01-22T16:11:24.087Z,65.1
2023-01-22T16:13:44.219Z,65.1
2023-01-22T16:14:54.645Z,65.1
2023-01-22T16:16:05.000Z,65.1
2023-01-22T16:18:25.964Z,65.1
2023-01-22T16:19:36.383Z,65.1
2023-01-22T16:21:57.233Z,65.1
2023-01-22T16:22:49.667Z,65
2023-01-22T16:24:18.110Z,65.1
2023-01-22T16:25:28.525Z,65.1
2023-01-22T16:26:38.971Z,65.1
2023-01-22T16:27:48.657Z,65.1
2023-01-22T16:28:59.104Z,65.1
2023-01-22T16:29:51.521Z,65.1
2023-01-22T16:31:19.956Z,65.1
2023-01-22T16:32:30.000Z,65.1
2023-01-22T16:36:01.674Z,65.1
2023-01-22T16:38:22.547Z,65.1
2023-01-22T16:39:32.973Z,65
2023-01-22T16:40:43.406Z,65.1
2023-01-22T16:41:53.828Z,65.1
2023-01-22T16:43:04.265Z,65
2023-01-22T16:44:14.000Z,65
2023-01-22T16:45:24.396Z,65
2023-01-22T16:46:34.822Z,65
2023-01-22T16:48:55.681Z,65
2023-01-22T16:51:16.000Z,65
2023-01-22T16:52:26.989Z,65
2023-01-22T16:55:58.274Z,65
2023-01-22T16:57:08.711Z,65
2023-01-22T16:58:19.130Z,65
2023-01-22T17:00:40.009Z,65
2023-01-22T17:04:10.553Z,65
2023-01-22T17:05:02.990Z,65
2023-01-22T17:06:31.423Z,65
2023-01-22T17:08:52.276Z,65
2023-01-22T17:11:13.158Z,65
2023-01-22T17:12:05.577Z,65
2023-01-22T17:13:34.011Z,65
2023-01-22T17:14:44.437Z,64.9
2023-01-22T17:17:05.336Z,64.9
2023-01-22T17:19:26.000Z,64.9
2023-01-22T17:22:56.726Z,64.9
2023-01-22T17:25:17.598Z,64.9
2023-01-22T17:26:28.000Z,64.9
2023-01-22T17:27:38.446Z,64.9
2023-01-22T17:29:59.316Z,64.9
2023-01-22T17:31:09.755Z,64.9
2023-01-22T17:33:12.607Z,64.9
2023-01-22T17:34:41.043Z,64.9
2023-01-22T17:35:51.469Z,64.9
2023-01-22T17:38:11.610Z,64.9
2023-01-22T17:40:14.462Z,64.9
2023-01-22T17:41:42.897Z,64.9
2023-01-22T17:42:53.332Z,64.9
2023-01-22T17:44:03.767Z,64.9
2023-01-22T17:45:14.198Z,64.9
2023-01-22T17:46:24.619Z,64.9
2023-01-22T17:47:17.049Z,64.9
2023-01-22T17:51:06.335Z,64.9
2023-01-22T17:52:16.781Z,64.9
2023-01-22T17:54:36.000Z,64.9
2023-01-22T17:58:08.191Z,64.9
2023-01-22T17:59:18.624Z,64.9
2023-01-22T18:00:29.000Z,64.9
2023-01-22T18:01:39.000Z,64.9
2023-01-22T18:04:00.346Z,64.9
2023-01-22T18:05:10.784Z,64.9
2023-01-22T18:08:24.077Z,64.9
2023-01-22T18:09:51.782Z,64.9
2023-01-22T18:13:05.071Z,64.9
2023-01-22T18:15:25.933Z,64.9
2023-01-22T18:16:54.366Z,64.9
2023-01-22T18:18:04.000Z,64.9
2023-01-22T18:20:25.669Z,64.9
2023-01-22T18:21:18.090Z,64.9
2023-01-22T18:22:28.521Z,64.9
2023-01-22T18:23:56.947Z,65
2023-01-22T18:25:06.663Z,65
2023-01-22T18:26:17.083Z,65
2023-01-22T18:27:27.519Z,65
2023-01-22T18:28:37.966Z,65
2023-01-22T18:29:48.374Z,65
2023-01-22T18:30:58.807Z,65
2023-01-22T18:34:30.000Z,65
2023-01-22T18:35:40.541Z,65
2023-01-22T18:36:32.964Z,65
2023-01-22T18:38:01.388Z,65
2023-01-22T18:39:11.825Z,65
2023-01-22T18:41:32.706Z,65
2023-01-22T18:42:24.388Z,64.9
2023-01-22T18:43:52.000Z,65
2023-01-22T18:45:03.247Z,65
2023-01-22T18:46:13.678Z,65
2023-01-22T18:47:24.115Z,65
2023-01-22T18:50:37.406Z,65
2023-01-22T18:52:05.834Z,65
2023-01-22T18:55:37.133Z,65.1
2023-01-22T18:56:47.557Z,65.1
2023-01-22T18:57:39.261Z,65.1
2023-01-22T18:59:07.696Z,65.1
2023-01-22T19:00:18.132Z,65
2023-01-22T19:01:28.558Z,65
2023-01-22T19:02:38.981Z,65
2023-01-22T19:03:49.425Z,65
2023-01-22T19:04:41.848Z,65.1
2023-01-22T19:06:10.273Z,65.1
2023-01-22T19:07:20.710Z,65.1
2023-01-22T19:08:31.134Z,65
2023-01-22T19:09:41.581Z,65.1
2023-01-22T19:10:52.010Z,65
2023-01-22T19:11:44.435Z,65.1
2023-01-22T19:13:12.132Z,65.1
2023-01-22T19:14:22.569Z,65.1
2023-01-22T19:15:32.992Z,65.1
2023-01-22T19:16:42.707Z,65.1
2023-01-22T19:17:53.122Z,65.1
2023-01-22T19:19:02.863Z,65.1
2023-01-22T19:21:23.000Z,65.2
2023-01-22T19:22:33.427Z,65.2
2023-01-22T19:23:43.858Z,65.2
2023-01-22T19:24:54.289Z,65.2
2023-01-22T19:25:46.724Z,65.2
2023-01-22T19:27:15.148Z,65.2
2023-01-22T19:28:25.587Z,65.2
2023-01-22T19:29:36.000Z,65.2
2023-01-22T19:30:46.460Z,65.2
2023-01-22T19:31:56.883Z,65.2
2023-01-22T19:32:49.310Z,65.3
2023-01-22T19:34:17.734Z,65.2
2023-01-22T19:36:37.915Z,65.3
2023-01-22T19:37:47.613Z,65.3
2023-01-22T19:40:08.000Z,65.3
2023-01-22T19:41:18.213Z,65.3
2023-01-22T19:42:27.923Z,65.3
2023-01-22T19:43:38.344Z,65.3
2023-01-22T19:44:48.789Z,65.3
2023-01-22T19:47:09.000Z,65.3
2023-01-22T19:49:30.514Z,65.3
2023-01-22T19:50:40.935Z,65.3
2023-01-22T19:53:01.790Z,65.3
2023-01-22T19:54:12.000Z,65.3
2023-01-22T19:55:04.659Z,65.3
2023-01-22T19:56:33.092Z,65.3
2023-01-22T19:57:42.800Z,65.3
2023-01-22T19:58:35.221Z,65.3
2023-01-22T20:01:14.086Z,65.3
2023-01-22T20:02:24.514Z,65.3
2023-01-22T20:03:34.000Z,65.2
2023-01-22T20:04:45.374Z,65.3
2023-01-22T20:05:55.803Z,65.3
2023-01-22T20:07:06.236Z,65.3
2023-01-22T20:09:27.096Z,65.3
2023-01-22T20:11:47.963Z,65.3
2023-01-22T20:14:08.096Z,65.3
2023-01-22T20:15:00.525Z,65.3
2023-01-22T20:16:10.956Z,65.3
2023-01-22T20:18:49.814Z,65.3
2023-01-22T20:20:00.000Z,65.3
2023-01-22T20:22:21.000Z,65.2
2023-01-22T20:24:23.973Z,65.2
2023-01-22T20:25:52.399Z,65.3
2023-01-22T20:27:02.848Z,65.2
2023-01-22T20:28:12.000Z,65.3
2023-01-22T20:29:04.966Z,65.3
2023-01-22T20:30:33.408Z,65.3
2023-01-22T20:31:43.827Z,65.3